Terminal Aerodrome Forecast
Issued by NWS

Home | Current Version | Previous Version | Text Only | Print | Product List | Glossary Off
Versions: 1 2 3 4 5 6 7 8 9 10 11 12 13 14 15 16 17 18 19 20 21 22

000
FTUS43 KABR 192300
TAFATY
TAF
KATY 192322Z 2000/2024 34006KT P6SM FEW040
     FM200200 VRB03KT P6SM SKC
     FM201600 14011KT P6SM OVC250 PROB30 2020/2024 -TSRA OVC050CB=

USA.gov is the U.S. government's official web portal to all federal, state and local government web resources and services.